createdAt,value
2019-02-28T00:01:12.772Z,100271.47
2019-02-28T00:03:40.642Z,100266.59
2019-02-28T00:06:11.750Z,100266.64
2019-02-28T00:08:37.641Z,100270.48
2019-02-28T00:11:06.040Z,100268.47
2019-02-28T00:13:33.811Z,100257.03
2019-02-28T00:16:03.281Z,100249.55
2019-02-28T00:18:30.832Z,100253.53
2019-02-28T00:20:58.485Z,100238.31
2019-02-28T00:23:26.128Z,100230.20
2019-02-28T00:25:53.787Z,100232.55
2019-02-28T00:28:23.147Z,100240.59
2019-02-28T00:30:50.818Z,100232.55
2019-02-28T00:33:18.450Z,100232.89
2019-02-28T00:35:46.088Z,100231.06
2019-02-28T00:38:13.740Z,100225.33
2019-02-28T00:40:41.395Z,100224.83
2019-02-28T00:43:09.044Z,100215.61
2019-02-28T00:45:37.369Z,100212.06
2019-02-28T00:48:05.210Z,100204.73
2019-02-28T00:50:32.852Z,100209.57
2019-02-28T00:53:00.511Z,100206.06
2019-02-28T00:55:28.157Z,100200.58
2019-02-28T00:57:56.040Z,100192.40
2019-02-28T01:00:23.758Z,100188.30
2019-02-28T01:02:53.263Z,100185.30
2019-02-28T01:05:20.763Z,100189.23
2019-02-28T01:07:49.090Z,100174.15
2019-02-28T01:10:16.844Z,100165.34
2019-02-28T01:12:44.503Z,100156.31
2019-02-28T01:15:12.149Z,100156.45
2019-02-28T01:17:39.814Z,100154.05
2019-02-28T01:20:07.459Z,100142.78
2019-02-28T01:22:35.121Z,100147.02
2019-02-28T01:25:02.771Z,100133.67
2019-02-28T01:27:30.417Z,100129.96
2019-02-28T01:29:58.051Z,100132.64
2019-02-28T01:32:25.703Z,100130.76
2019-02-28T01:34:53.362Z,100127.92
2019-02-28T01:37:21.918Z,100125.88
2019-02-28T01:39:49.749Z,100124.03
2019-02-28T01:42:20.162Z,100119.53
2019-02-28T01:44:46.756Z,100111.45
2019-02-28T01:47:14.413Z,100116.49
2019-02-28T01:49:42.056Z,100112.17
2019-02-28T01:52:10.609Z,100107.66
2019-02-28T01:54:38.547Z,100108.34
2019-02-28T01:57:08.989Z,100098.52
2019-02-28T01:59:35.552Z,100099.07
2019-02-28T02:02:06.750Z,100102.56
2019-02-28T02:04:32.573Z,100100.20
2019-02-28T02:07:00.489Z,100095.39
2019-02-28T02:09:28.239Z,100084.31
2019-02-28T02:11:57.985Z,100081.34
2019-02-28T02:14:25.256Z,100071.59
2019-02-28T02:16:52.928Z,100072.62
2019-02-28T02:19:20.583Z,100076.98
2019-02-28T02:21:48.223Z,100065.13
2019-02-28T02:24:15.876Z,100068.61
2019-02-28T02:26:45.166Z,100059.41
2019-02-28T02:29:12.882Z,100047.05
2019-02-28T02:31:43.343Z,100054.59
2019-02-28T02:34:09.890Z,100041.57
2019-02-28T02:36:37.528Z,100036.35
2019-02-28T02:39:05.202Z,100041.17
2019-02-28T02:41:33.693Z,100032.37
2019-02-28T02:44:02.392Z,100028.42
2019-02-28T02:46:30.038Z,100021.70
2019-02-28T02:48:57.699Z,100026.99
2019-02-28T02:51:25.349Z,100012.89
2019-02-28T02:53:53.010Z,100012.28
2019-02-28T02:56:20.655Z,100015.83
2019-02-28T02:58:48.320Z,100008.78
2019-02-28T03:01:15.981Z,100012.12
2019-02-28T03:03:44.558Z,100014.11
2019-02-28T03:06:14.233Z,100004.97
2019-02-28T03:08:41.710Z,100005.70
2019-02-28T03:11:09.356Z,100011.77
2019-02-28T03:13:42.120Z,100001.05
2019-02-28T03:16:06.372Z,100003.52
2019-02-28T03:18:34.032Z,99997.23
2019-02-28T03:21:01.679Z,100007.49
2019-02-28T03:23:29.348Z,99996.02
2019-02-28T03:26:02.061Z,99989.97
2019-02-28T03:28:31.440Z,100001.48
2019-02-28T03:30:55.697Z,99988.34
2019-02-28T03:33:27.183Z,99977.09
2019-02-28T03:35:52.701Z,99990.15
2019-02-28T03:38:20.363Z,99971.51
2019-02-28T03:40:48.003Z,99992.52
2019-02-28T03:43:15.654Z,99975.66
2019-02-28T03:45:43.315Z,99978.53
2019-02-28T03:48:10.966Z,99972.05
2019-02-28T03:50:38.610Z,99971.53
2019-02-28T03:53:06.254Z,99962.16
2019-02-28T03:55:39.822Z,99975.98
2019-02-28T03:58:05.535Z,99960.28
2019-02-28T04:00:34.090Z,99976.03
2019-02-28T04:03:01.943Z,99972.27
2019-02-28T04:05:29.575Z,99962.45
2019-02-28T04:07:57.215Z,99967.00
2019-02-28T04:10:24.862Z,99958.06
2019-02-28T04:12:52.513Z,99952.90
2019-02-28T04:15:20.231Z,99949.00
2019-02-28T04:17:47.980Z,99938.15
2019-02-28T04:20:15.613Z,99943.73
2019-02-28T04:22:43.265Z,99927.96
2019-02-28T04:25:10.903Z,99928.52
2019-02-28T04:27:40.365Z,99932.06
2019-02-28T04:30:08.400Z,99923.07
2019-02-28T04:32:36.255Z,99927.81
2019-02-28T04:35:03.901Z,99927.16
2019-02-28T04:37:31.529Z,99908.05
2019-02-28T04:39:59.176Z,99927.36
2019-02-28T04:42:26.904Z,99913.23
2019-02-28T04:44:54.565Z,99915.22
2019-02-28T04:47:22.206Z,99908.47
2019-02-28T04:49:49.855Z,99909.64
2019-02-28T04:52:17.504Z,99907.97
2019-02-28T04:54:45.152Z,99920.64
2019-02-28T04:57:12.786Z,99902.35
2019-02-28T04:59:40.436Z,99905.89
2019-02-28T05:02:08.085Z,99901.78
2019-02-28T05:04:36.147Z,99900.97
2019-02-28T05:07:04.449Z,99905.61
2019-02-28T05:09:32.102Z,99903.55
2019-02-28T05:12:02.493Z,99900.16
2019-02-28T05:14:29.108Z,99894.11
2019-02-28T05:16:56.750Z,99889.61
2019-02-28T05:19:24.390Z,99880.84
2019-02-28T05:21:53.581Z,99878.97
2019-02-28T05:24:21.379Z,99872.51
2019-02-28T05:26:49.033Z,99880.50
2019-02-28T05:29:16.672Z,99866.17
2019-02-28T05:31:44.311Z,99857.75
2019-02-28T05:34:13.177Z,99857.14
2019-02-28T05:36:41.295Z,99860.19
2019-02-28T05:39:08.968Z,99855.33
2019-02-28T05:41:36.679Z,99853.88
2019-02-28T05:44:06.224Z,99850.49
2019-02-28T05:46:33.695Z,99849.97
2019-02-28T05:49:01.332Z,99852.53
2019-02-28T05:51:28.980Z,99846.28
2019-02-28T05:53:56.623Z,99847.36
2019-02-28T05:56:24.265Z,99850.67
2019-02-28T05:58:52.561Z,99842.92
2019-02-28T06:01:20.945Z,99833.60
2019-02-28T06:03:48.592Z,99833.34
2019-02-28T06:06:17.288Z,99834.16
2019-02-28T06:08:45.592Z,99836.77
2019-02-28T06:11:15.286Z,99838.20
2019-02-28T06:13:42.576Z,99836.30
2019-02-28T06:16:12.324Z,99832.30
2019-02-28T06:18:39.618Z,99833.98
2019-02-28T06:21:07.250Z,99823.09
2019-02-28T06:23:34.911Z,99821.23
2019-02-28T06:26:02.561Z,99815.19
2019-02-28T06:28:31.030Z,99820.98
2019-02-28T06:31:00.361Z,99819.38
2019-02-28T06:33:30.690Z,99820.44
2019-02-28T06:35:57.597Z,99820.77
2019-02-28T06:38:25.227Z,99823.38
2019-02-28T06:40:52.872Z,99817.33
2019-02-28T06:43:20.517Z,99818.47
2019-02-28T06:45:48.154Z,99819.52
2019-02-28T06:48:15.796Z,99827.91
2019-02-28T06:50:44.679Z,99825.45
2019-02-28T06:53:12.804Z,99832.25
2019-02-28T06:55:47.696Z,99838.12
2019-02-28T06:58:15.339Z,99830.57
2019-02-28T07:00:44.229Z,99824.86
2019-02-28T07:03:12.399Z,99831.52
2019-02-28T07:05:40.084Z,99828.02
2019-02-28T07:08:07.720Z,99837.05
2019-02-28T07:10:35.395Z,99829.20
2019-02-28T07:13:04.471Z,99828.58
2019-02-28T07:15:32.379Z,99833.28
2019-02-28T07:18:00.015Z,99834.22
2019-02-28T07:20:27.656Z,99824.95
2019-02-28T07:22:55.861Z,99825.70
2019-02-28T07:25:23.638Z,99816.72
2019-02-28T07:27:51.286Z,99815.02
2019-02-28T07:30:19.340Z,99815.09
2019-02-28T07:32:47.280Z,99810.61
2019-02-28T07:35:14.921Z,99812.23
2019-02-28T07:37:42.563Z,99819.98
2019-02-28T07:40:15.545Z,99821.79
2019-02-28T07:42:39.586Z,99826.33
2019-02-28T07:45:07.247Z,99823.41
2019-02-28T07:47:34.909Z,99824.66
2019-02-28T07:50:02.568Z,99814.67
2019-02-28T07:52:33.396Z,99822.21
2019-02-28T07:54:59.603Z,99829.97
2019-02-28T07:57:27.263Z,99830.97
2019-02-28T07:59:54.916Z,99834.79
2019-02-28T08:02:22.574Z,99828.84
2019-02-28T08:04:50.636Z,99821.77
2019-02-28T08:07:19.576Z,99821.64
2019-02-28T08:09:47.241Z,99813.70
2019-02-28T08:12:14.918Z,99814.16
2019-02-28T08:14:43.610Z,99817.08
2019-02-28T08:17:11.940Z,99817.72
2019-02-28T08:19:39.612Z,99812.86
2019-02-28T08:22:07.279Z,99820.81
2019-02-28T08:24:35.873Z,99811.48
2019-02-28T08:27:04.363Z,99814.67
2019-02-28T08:29:32.012Z,99815.96
2019-02-28T08:31:59.669Z,99805.39
2019-02-28T08:34:27.321Z,99806.23
2019-02-28T08:36:54.972Z,99807.69
2019-02-28T08:39:22.657Z,99816.92
2019-02-28T08:41:50.365Z,99819.77
2019-02-28T08:44:22.775Z,99817.59
2019-02-28T08:46:47.384Z,99815.78
2019-02-28T08:49:15.038Z,99815.36
2019-02-28T08:51:43.275Z,99813.30
2019-02-28T08:54:11.144Z,99811.09
2019-02-28T08:56:38.799Z,99809.11
2019-02-28T08:59:11.790Z,99806.33
2019-02-28T09:01:40.049Z,99809.21
2019-02-28T09:04:05.844Z,99811.03
2019-02-28T09:06:33.617Z,99806.83
2019-02-28T09:09:01.266Z,99797.43
2019-02-28T09:11:28.923Z,99792.88
2019-02-28T09:13:56.571Z,99784.45
2019-02-28T09:16:24.257Z,99787.86
2019-02-28T09:18:51.919Z,99782.35
2019-02-28T09:21:19.573Z,99779.72
2019-02-28T09:23:47.230Z,99781.30
2019-02-28T09:26:14.887Z,99787.52
2019-02-28T09:28:44.454Z,99759.94
2019-02-28T09:31:11.905Z,99779.92
2019-02-28T09:33:39.561Z,99771.16
2019-02-28T09:36:07.221Z,99771.61
2019-02-28T09:38:34.879Z,99777.84
2019-02-28T09:41:04.509Z,99775.96
2019-02-28T09:43:31.897Z,99774.54
2019-02-28T09:45:59.560Z,99783.57
2019-02-28T09:48:27.207Z,99784.14
2019-02-28T09:50:58.221Z,99776.84
2019-02-28T09:53:24.227Z,99776.12
2019-02-28T09:55:51.892Z,99771.66
2019-02-28T09:58:19.545Z,99774.69
2019-02-28T10:00:50.214Z,99765.54
2019-02-28T10:03:18.624Z,99764.04
2019-02-28T10:05:45.949Z,99767.77
2019-02-28T10:08:13.607Z,99764.65
2019-02-28T10:10:41.256Z,99762.05
2019-02-28T10:13:08.899Z,99750.73
2019-02-28T10:15:38.668Z,99765.66
2019-02-28T10:18:05.975Z,99758.63
2019-02-28T10:20:33.751Z,99747.70
2019-02-28T10:23:01.419Z,99756.56
2019-02-28T10:25:29.193Z,99742.16
2019-02-28T10:28:01.702Z,99758.02
2019-02-28T10:30:31.840Z,99756.97
2019-02-28T10:32:55.593Z,99756.20
2019-02-28T10:35:23.251Z,99752.20
2019-02-28T10:37:50.923Z,99745.96
2019-02-28T10:40:18.750Z,99749.94
2019-02-28T10:42:46.517Z,99744.61
2019-02-28T10:45:14.168Z,99747.28
2019-02-28T10:47:41.821Z,99752.84
2019-02-28T10:50:09.467Z,99748.77
2019-02-28T10:52:37.136Z,99738.77
2019-02-28T10:55:04.800Z,99740.09
2019-02-28T10:57:32.598Z,99744.66
2019-02-28T11:00:00.299Z,99748.66
2019-02-28T11:02:27.972Z,99751.72
2019-02-28T11:04:55.614Z,99744.85
2019-02-28T11:07:23.272Z,99745.55
2019-02-28T11:09:51.031Z,99745.64
2019-02-28T11:12:20.285Z,99747.73
2019-02-28T11:14:48.080Z,99742.72
2019-02-28T11:17:15.742Z,99742.28
2019-02-28T11:19:43.390Z,99738.44
2019-02-28T11:22:11.058Z,99721.78
2019-02-28T11:24:38.710Z,99759.64
2019-02-28T11:27:06.375Z,99747.31
2019-02-28T11:29:35.102Z,99746.16
2019-02-28T11:32:03.404Z,99755.25
2019-02-28T11:34:31.091Z,99744.43
2019-02-28T11:36:58.791Z,99757.56
2019-02-28T11:39:27.631Z,99747.95
2019-02-28T11:41:55.951Z,99748.37
2019-02-28T11:44:23.616Z,99755.93
2019-02-28T11:46:51.343Z,99752.09
2019-02-28T11:49:19.003Z,99752.98
2019-02-28T11:51:49.359Z,99746.88
2019-02-28T11:54:16.088Z,99738.81
2019-02-28T11:56:43.754Z,99737.42
2019-02-28T11:59:11.423Z,99734.78
2019-02-28T12:01:39.095Z,99730.41
2019-02-28T12:04:06.752Z,99736.52
2019-02-28T12:06:34.421Z,99723.96
2019-02-28T12:09:02.107Z,99720.08
2019-02-28T12:11:29.781Z,99727.00
2019-02-28T12:13:57.439Z,99731.34
2019-02-28T12:16:25.116Z,99735.78
2019-02-28T12:18:52.779Z,99734.75
2019-02-28T12:21:20.459Z,99733.35
2019-02-28T12:23:48.145Z,99738.58
2019-02-28T12:26:17.811Z,99739.58
2019-02-28T12:28:45.190Z,99742.53
2019-02-28T12:31:12.851Z,99734.41
2019-02-28T12:33:40.496Z,99733.77
2019-02-28T12:36:08.138Z,99734.39
2019-02-28T12:38:35.854Z,99728.84
2019-02-28T12:41:03.500Z,99722.39
2019-02-28T12:43:31.171Z,99726.21
2019-02-28T12:46:00.143Z,99718.59
2019-02-28T12:48:28.365Z,99718.53
2019-02-28T12:50:55.999Z,99722.17
2019-02-28T12:53:25.293Z,99725.67
2019-02-28T12:55:53.139Z,99728.69
2019-02-28T12:58:20.832Z,99709.08
2019-02-28T13:00:48.670Z,99734.00
2019-02-28T13:03:20.225Z,99731.39
2019-02-28T13:05:48.045Z,99734.34
2019-02-28T13:08:15.079Z,99739.23
2019-02-28T13:10:42.762Z,99727.60
2019-02-28T13:13:10.419Z,99722.33
2019-02-28T13:15:38.096Z,99720.48
2019-02-28T13:18:09.075Z,99724.89
2019-02-28T13:20:36.570Z,99724.38
2019-02-28T13:23:04.418Z,99735.72
2019-02-28T13:25:32.111Z,99734.14
2019-02-28T13:27:59.883Z,99721.67
2019-02-28T13:30:27.958Z,99718.59
2019-02-28T13:32:55.916Z,99721.09
2019-02-28T13:35:23.576Z,99719.44
2019-02-28T13:37:51.240Z,99721.20
2019-02-28T13:40:18.905Z,99722.27
2019-02-28T13:42:46.584Z,99720.02
2019-02-28T13:45:22.147Z,99719.79
2019-02-28T13:47:46.277Z,99717.96
2019-02-28T13:50:13.050Z,99706.64
2019-02-28T13:52:40.780Z,99711.02
2019-02-28T13:55:08.458Z,99706.63
2019-02-28T13:57:36.219Z,99709.25
2019-02-28T14:00:08.023Z,99712.66
2019-02-28T14:02:33.826Z,99715.27
2019-02-28T14:05:03.046Z,99718.72
2019-02-28T14:07:33.775Z,99712.27
2019-02-28T14:10:00.545Z,99707.05
2019-02-28T14:12:28.904Z,99706.98
2019-02-28T14:14:56.720Z,99704.00
2019-02-28T14:17:24.397Z,99700.47
2019-02-28T14:19:52.728Z,99697.92
2019-02-28T14:22:21.267Z,99698.28
2019-02-28T14:24:48.932Z,99693.08
2019-02-28T14:27:16.599Z,99694.81
2019-02-28T14:29:48.347Z,99690.95
2019-02-28T14:32:13.920Z,99694.81
2019-02-28T14:34:41.591Z,99695.22
2019-02-28T14:37:09.233Z,99695.67
2019-02-28T14:39:39.813Z,99698.65
2019-02-28T14:42:06.750Z,99691.73
2019-02-28T14:44:35.610Z,99696.09
2019-02-28T14:47:03.268Z,99700.86
2019-02-28T14:49:31.012Z,99704.74
2019-02-28T14:52:00.413Z,99704.23
2019-02-28T14:54:28.020Z,99699.03
2019-02-28T14:56:55.683Z,99693.35
2019-02-28T14:59:23.333Z,99696.67
2019-02-28T15:01:53.050Z,99695.47
2019-02-28T15:04:20.499Z,99697.91
2019-02-28T15:06:48.159Z,99696.20
2019-02-28T15:09:15.917Z,99695.25
2019-02-28T15:11:46.688Z,99698.72
2019-02-28T15:14:12.984Z,99693.83
2019-02-28T15:16:40.722Z,99691.70
2019-02-28T15:19:08.387Z,99688.56
2019-02-28T15:21:36.046Z,99686.46
2019-02-28T15:24:05.433Z,99682.95
2019-02-28T15:26:33.194Z,99680.61
2019-02-28T15:29:01.007Z,99683.31
2019-02-28T15:31:28.702Z,99690.58
2019-02-28T15:33:56.372Z,99680.19
2019-02-28T15:36:24.987Z,99693.09
2019-02-28T15:38:52.769Z,99687.34
2019-02-28T15:41:20.428Z,99692.41
2019-02-28T15:43:50.315Z,99687.34
2019-02-28T15:46:17.480Z,99684.69
2019-02-28T15:48:45.156Z,99683.36
2019-02-28T15:51:12.813Z,99685.47
2019-02-28T15:53:40.475Z,99681.05
2019-02-28T15:56:13.458Z,99685.72
2019-02-28T15:58:37.690Z,99694.80
2019-02-28T16:01:06.849Z,99691.66
2019-02-28T16:03:34.515Z,99687.28
2019-02-28T16:06:02.164Z,99684.53
2019-02-28T16:08:29.844Z,99689.55
2019-02-28T16:10:57.577Z,99684.92
2019-02-28T16:13:25.884Z,99685.59
2019-02-28T16:15:54.236Z,99685.94
2019-02-28T16:18:21.888Z,99688.39
2019-02-28T16:20:49.558Z,99690.63
2019-02-28T16:23:17.239Z,99682.00
2019-02-28T16:25:46.807Z,99680.34
2019-02-28T16:28:14.262Z,99677.27
2019-02-28T16:30:41.916Z,99690.10
2019-02-28T16:33:09.567Z,99686.31
2019-02-28T16:35:37.228Z,99688.73
2019-02-28T16:38:06.562Z,99682.41
2019-02-28T16:40:34.301Z,99687.55
2019-02-28T16:43:01.955Z,99684.05
2019-02-28T16:45:40.791Z,99685.52
2019-02-28T16:48:09.561Z,99687.52
2019-02-28T16:50:37.215Z,99688.94
2019-02-28T16:53:04.881Z,99691.78
2019-02-28T16:55:32.599Z,99691.14
2019-02-28T16:58:00.255Z,99699.06
2019-02-28T17:00:27.906Z,99696.94
2019-02-28T17:02:55.560Z,99701.39
2019-02-28T17:05:26.641Z,99706.49
2019-02-28T17:07:52.573Z,99712.02
2019-02-28T17:10:23.502Z,99709.27
2019-02-28T17:13:04.318Z,99714.37
2019-02-28T17:15:43.127Z,99718.67
2019-02-28T17:18:14.632Z,99718.13
2019-02-28T17:20:42.297Z,99721.92
2019-02-28T17:23:09.988Z,99723.96
2019-02-28T17:25:37.646Z,99735.59
2019-02-28T17:28:25.239Z,99732.70
2019-02-28T17:31:08.391Z,99742.87
2019-02-28T17:33:35.362Z,99741.53
2019-02-28T17:36:03.025Z,99745.74
2019-02-28T17:38:32.233Z,99746.48
2019-02-28T17:41:01.885Z,99747.50
2019-02-28T17:43:29.420Z,99747.34
2019-02-28T17:45:57.077Z,99749.16
2019-02-28T17:48:24.944Z,99744.59
2019-02-28T17:50:52.623Z,99744.16
2019-02-28T17:53:20.266Z,99749.30
2019-02-28T17:55:47.939Z,99750.55
2019-02-28T17:58:15.594Z,99752.52
2019-02-28T18:00:48.169Z,99755.80
2019-02-28T18:03:16.980Z,99753.98
2019-02-28T18:05:44.639Z,99761.07
2019-02-28T18:08:12.309Z,99761.23
2019-02-28T18:10:39.967Z,99765.42
2019-02-28T18:13:07.618Z,99761.59
2019-02-28T18:15:35.271Z,99771.31
2019-02-28T18:18:05.466Z,99774.94
2019-02-28T18:20:32.347Z,99774.41
2019-02-28T18:23:00.057Z,99780.30
2019-02-28T18:25:29.517Z,99786.98
2019-02-28T18:27:57.078Z,99787.34
2019-02-28T18:30:24.731Z,99785.10
2019-02-28T18:32:52.384Z,99786.39
2019-02-28T18:35:20.049Z,99786.00
2019-02-28T18:37:47.716Z,99785.84
2019-02-28T18:40:15.379Z,99780.79
2019-02-28T18:42:43.036Z,99785.25
2019-02-28T18:45:10.687Z,99786.33
2019-02-28T18:47:39.669Z,99785.63
2019-02-28T18:50:07.696Z,99792.03
2019-02-28T18:52:35.408Z,99785.48
2019-02-28T18:55:06.093Z,99780.76
2019-02-28T18:57:32.464Z,99781.35
2019-02-28T19:00:00.297Z,99781.09
2019-02-28T19:02:28.039Z,99779.61
2019-02-28T19:04:55.702Z,99782.31
2019-02-28T19:07:23.363Z,99777.95
2019-02-28T19:09:51.012Z,99783.33
2019-02-28T19:12:18.656Z,99790.06
2019-02-28T19:14:46.303Z,99783.19
2019-02-28T19:17:13.960Z,99781.36
2019-02-28T19:19:41.676Z,99782.70
2019-02-28T19:22:09.322Z,99783.62
2019-02-28T19:24:36.984Z,99786.38
2019-02-28T19:27:04.643Z,99784.50
2019-02-28T19:29:32.296Z,99781.43
2019-02-28T19:31:59.956Z,99787.90
2019-02-28T19:34:27.614Z,99788.88
2019-02-28T19:36:55.263Z,99789.42
2019-02-28T19:39:22.907Z,99798.67
2019-02-28T19:41:50.555Z,99796.29
2019-02-28T19:44:18.200Z,99792.48
2019-02-28T19:46:45.868Z,99791.61
2019-02-28T19:49:13.537Z,99796.29
2019-02-28T19:51:41.256Z,99798.60
2019-02-28T19:54:08.905Z,99797.40
2019-02-28T19:56:36.547Z,99803.10
2019-02-28T19:59:04.200Z,99802.89
2019-02-28T20:01:31.851Z,99802.97
2019-02-28T20:03:59.505Z,99804.86
2019-02-28T20:06:27.162Z,99803.59
2019-02-28T20:08:54.803Z,99804.19
2019-02-28T20:11:22.748Z,99805.55
2019-02-28T20:13:50.396Z,99806.09
2019-02-28T20:16:18.111Z,99808.44
2019-02-28T20:18:45.777Z,99803.22
2019-02-28T20:21:13.438Z,99810.84
2019-02-28T20:23:41.087Z,99817.55
2019-02-28T20:26:08.743Z,99817.47
2019-02-28T20:28:36.388Z,99819.19
2019-02-28T20:31:04.037Z,99824.88
2019-02-28T20:33:31.779Z,99823.91
2019-02-28T20:35:59.451Z,99824.34
2019-02-28T20:38:27.090Z,99826.64
2019-02-28T20:40:54.736Z,99833.42
2019-02-28T20:43:22.409Z,99826.19
2019-02-28T20:45:50.061Z,99839.53
2019-02-28T20:48:18.112Z,99833.41
2019-02-28T20:50:46.338Z,99835.85
2019-02-28T20:53:14.108Z,99837.52
2019-02-28T20:55:41.751Z,99838.35
2019-02-28T20:58:09.406Z,99839.54
2019-02-28T21:00:37.058Z,99843.41
2019-02-28T21:03:04.723Z,99844.70
2019-02-28T21:05:32.370Z,99838.51
2019-02-28T21:08:00.023Z,99836.41
2019-02-28T21:10:27.676Z,99842.36
2019-02-28T21:12:55.322Z,99845.59
2019-02-28T21:15:24.702Z,99840.13
2019-02-28T21:17:52.376Z,99834.61
2019-02-28T21:20:20.029Z,99846.11
2019-02-28T21:22:47.904Z,99847.02
2019-02-28T21:25:15.710Z,99836.00
2019-02-28T21:27:43.355Z,99841.45
2019-02-28T21:30:11.001Z,99833.86
2019-02-28T21:32:38.655Z,99829.65
2019-02-28T21:35:06.389Z,99832.77
2019-02-28T21:37:34.037Z,99832.36
2019-02-28T21:40:01.680Z,99828.27
2019-02-28T21:42:29.331Z,99831.80
2019-02-28T21:44:56.976Z,99833.27
2019-02-28T21:47:24.635Z,99832.28
2019-02-28T21:49:52.307Z,99828.00
2019-02-28T21:52:19.947Z,99821.44
2019-02-28T21:54:47.598Z,99824.13
2019-02-28T21:57:15.239Z,99829.11
2019-02-28T21:59:42.880Z,99824.29
2019-02-28T22:02:10.519Z,99818.53
2019-02-28T22:04:38.174Z,99815.88
2019-02-28T22:07:05.833Z,99808.67
2019-02-28T22:09:33.481Z,99813.06
2019-02-28T22:12:01.128Z,99802.95
2019-02-28T22:14:28.774Z,99801.94
2019-02-28T22:16:56.423Z,99796.31
2019-02-28T22:19:24.086Z,99798.95
2019-02-28T22:21:51.731Z,99788.64
2019-02-28T22:24:19.394Z,99799.17
2019-02-28T22:26:47.043Z,99797.31
2019-02-28T22:29:14.692Z,99809.60
2019-02-28T22:31:51.626Z,99815.12
2019-02-28T22:34:25.979Z,99824.05
2019-02-28T22:36:53.795Z,99823.71
2019-02-28T22:39:21.443Z,99822.15
2019-02-28T22:41:49.120Z,99824.78
2019-02-28T22:44:16.764Z,99826.45
2019-02-28T22:46:44.405Z,99825.73
2019-02-28T22:49:12.043Z,99816.47
2019-02-28T22:51:39.692Z,99816.80
2019-02-28T22:54:07.403Z,99818.25
2019-02-28T22:56:35.047Z,99821.56
2019-02-28T22:59:02.721Z,99824.63
2019-02-28T23:01:30.552Z,99819.13
2019-02-28T23:03:58.203Z,99817.70
2019-02-28T23:06:25.844Z,99819.73
2019-02-28T23:08:53.508Z,99819.13
2019-02-28T23:11:21.164Z,99815.25
2019-02-28T23:13:48.910Z,99811.05
2019-02-28T23:16:16.557Z,99809.87
2019-02-28T23:18:44.205Z,99810.52
2019-02-28T23:21:11.850Z,99803.79
2019-02-28T23:23:39.504Z,99807.87
2019-02-28T23:26:07.171Z,99801.95
2019-02-28T23:28:34.922Z,99796.98
2019-02-28T23:31:02.581Z,99789.52
2019-02-28T23:33:30.231Z,99790.89
2019-02-28T23:35:57.880Z,99790.26
2019-02-28T23:38:25.539Z,99786.72
2019-02-28T23:40:53.256Z,99788.30
2019-02-28T23:43:20.907Z,99788.37
2019-02-28T23:45:48.562Z,99789.05
2019-02-28T23:48:16.210Z,99790.54
2019-02-28T23:50:43.852Z,99789.40
2019-02-28T23:53:11.506Z,99787.80
2019-02-28T23:55:39.163Z,99786.95
2019-02-28T23:58:06.814Z,99782.61
